sensor_id;sensor_type;location;lat;lon;timestamp;P1;durP1;ratioP1;P2;durP2;ratioP2
59516;SDS011;45342;42.662;27.718;2023-04-03T00:00:45;3.72;;;2.70;;
59516;SDS011;45342;42.662;27.718;2023-04-03T00:03:10;3.75;;;2.78;;
59516;SDS011;45342;42.662;27.718;2023-04-03T00:05:36;4.05;;;2.92;;
59516;SDS011;45342;42.662;27.718;2023-04-03T00:08:01;3.50;;;2.83;;
59516;SDS011;45342;42.662;27.718;2023-04-03T00:10:27;3.20;;;2.90;;
59516;SDS011;45342;42.662;27.718;2023-04-03T00:12:53;4.30;;;2.80;;
59516;SDS011;45342;42.662;27.718;2023-04-03T00:15:19;3.38;;;2.78;;
59516;SDS011;45342;42.662;27.718;2023-04-03T00:17:44;4.80;;;2.95;;
59516;SDS011;45342;42.662;27.718;2023-04-03T00:20:10;5.00;;;3.60;;
59516;SDS011;45342;42.662;27.718;2023-04-03T00:22:36;5.72;;;3.33;;
59516;SDS011;45342;42.662;27.718;2023-04-03T00:25:02;6.10;;;3.28;;
59516;SDS011;45342;42.662;27.718;2023-04-03T00:29:54;4.20;;;3.45;;
59516;SDS011;45342;42.662;27.718;2023-04-03T00:32:19;3.78;;;3.00;;
59516;SDS011;45342;42.662;27.718;2023-04-03T00:34:45;7.63;;;3.75;;
59516;SDS011;45342;42.662;27.718;2023-04-03T00:37:11;3.70;;;3.00;;
59516;SDS011;45342;42.662;27.718;2023-04-03T00:39:36;4.78;;;3.72;;
59516;SDS011;45342;42.662;27.718;2023-04-03T00:42:02;4.75;;;3.45;;
59516;SDS011;45342;42.662;27.718;2023-04-03T00:46:53;3.20;;;2.90;;
59516;SDS011;45342;42.662;27.718;2023-04-03T00:49:18;4.20;;;3.08;;
59516;SDS011;45342;42.662;27.718;2023-04-03T00:51:44;4.15;;;2.85;;
59516;SDS011;45342;42.662;27.718;2023-04-03T00:54:10;6.25;;;3.35;;
59516;SDS011;45342;42.662;27.718;2023-04-03T00:56:36;3.80;;;3.20;;
59516;SDS011;45342;42.662;27.718;2023-04-03T00:59:10;6.00;;;3.65;;
59516;SDS011;45342;42.662;27.718;2023-04-03T01:01:39;6.43;;;3.22;;
59516;SDS011;45342;42.662;27.718;2023-04-03T01:04:05;4.15;;;3.15;;
59516;SDS011;45342;42.662;27.718;2023-04-03T01:06:34;4.25;;;3.10;;
59516;SDS011;45342;42.662;27.718;2023-04-03T01:09:02;4.28;;;3.47;;
59516;SDS011;45342;42.662;27.718;2023-04-03T01:11:28;4.25;;;3.13;;
59516;SDS011;45342;42.662;27.718;2023-04-03T01:13:53;4.22;;;2.90;;
59516;SDS011;45342;42.662;27.718;2023-04-03T01:16:19;3.72;;;3.13;;
59516;SDS011;45342;42.662;27.718;2023-04-03T01:18:45;4.22;;;3.22;;
59516;SDS011;45342;42.662;27.718;2023-04-03T01:21:28;3.58;;;3.08;;
59516;SDS011;45342;42.662;27.718;2023-04-03T01:24:36;3.53;;;3.05;;
59516;SDS011;45342;42.662;27.718;2023-04-03T01:27:04;3.53;;;3.03;;
59516;SDS011;45342;42.662;27.718;2023-04-03T01:29:31;3.50;;;3.00;;
59516;SDS011;45342;42.662;27.718;2023-04-03T01:31:58;5.20;;;2.97;;
59516;SDS011;45342;42.662;27.718;2023-04-03T01:34:25;4.15;;;3.13;;
59516;SDS011;45342;42.662;27.718;2023-04-03T01:36:52;5.03;;;3.10;;
59516;SDS011;45342;42.662;27.718;2023-04-03T01:39:18;4.90;;;3.47;;
59516;SDS011;45342;42.662;27.718;2023-04-03T01:44:10;5.22;;;3.28;;
59516;SDS011;45342;42.662;27.718;2023-04-03T01:46:35;3.63;;;3.00;;
59516;SDS011;45342;42.662;27.718;2023-04-03T01:49:02;3.67;;;3.05;;
59516;SDS011;45342;42.662;27.718;2023-04-03T01:53:54;4.03;;;3.00;;
59516;SDS011;45342;42.662;27.718;2023-04-03T01:56:20;4.55;;;3.03;;
59516;SDS011;45342;42.662;27.718;2023-04-03T01:58:46;3.97;;;3.10;;
59516;SDS011;45342;42.662;27.718;2023-04-03T02:01:11;3.78;;;3.33;;
59516;SDS011;45342;42.662;27.718;2023-04-03T02:03:37;4.22;;;2.55;;
59516;SDS011;45342;42.662;27.718;2023-04-03T02:06:03;5.30;;;3.17;;
59516;SDS011;45342;42.662;27.718;2023-04-03T02:08:28;4.32;;;3.20;;
59516;SDS011;45342;42.662;27.718;2023-04-03T02:10:54;3.72;;;3.00;;
59516;SDS011;45342;42.662;27.718;2023-04-03T02:13:20;3.42;;;2.95;;
59516;SDS011;45342;42.662;27.718;2023-04-03T02:15:46;3.20;;;2.85;;
59516;SDS011;45342;42.662;27.718;2023-04-03T02:18:13;4.60;;;3.30;;
59516;SDS011;45342;42.662;27.718;2023-04-03T02:20:38;4.88;;;2.97;;
59516;SDS011;45342;42.662;27.718;2023-04-03T02:23:05;6.35;;;3.20;;
59516;SDS011;45342;42.662;27.718;2023-04-03T02:25:30;3.58;;;3.03;;
59516;SDS011;45342;42.662;27.718;2023-04-03T02:27:56;4.63;;;2.88;;
59516;SDS011;45342;42.662;27.718;2023-04-03T02:30:22;5.07;;;2.97;;
59516;SDS011;45342;42.662;27.718;2023-04-03T02:32:47;4.53;;;3.05;;
59516;SDS011;45342;42.662;27.718;2023-04-03T02:35:13;3.20;;;2.90;;
59516;SDS011;45342;42.662;27.718;2023-04-03T02:37:39;4.47;;;2.75;;
59516;SDS011;45342;42.662;27.718;2023-04-03T02:40:05;4.82;;;2.78;;
59516;SDS011;45342;42.662;27.718;2023-04-03T02:42:31;2.88;;;2.60;;
59516;SDS011;45342;42.662;27.718;2023-04-03T02:44:56;4.65;;;2.97;;
59516;SDS011;45342;42.662;27.718;2023-04-03T02:47:22;6.13;;;3.10;;
59516;SDS011;45342;42.662;27.718;2023-04-03T02:49:48;3.10;;;2.80;;
59516;SDS011;45342;42.662;27.718;2023-04-03T02:52:14;4.30;;;2.97;;
59516;SDS011;45342;42.662;27.718;2023-04-03T02:54:40;11.80;;;2.95;;
59516;SDS011;45342;42.662;27.718;2023-04-03T02:57:05;3.30;;;2.90;;
59516;SDS011;45342;42.662;27.718;2023-04-03T02:59:34;3.35;;;2.70;;
59516;SDS011;45342;42.662;27.718;2023-04-03T03:02:06;3.03;;;2.70;;
59516;SDS011;45342;42.662;27.718;2023-04-03T03:04:35;3.15;;;2.80;;
59516;SDS011;45342;42.662;27.718;2023-04-03T03:09:27;3.30;;;2.65;;
59516;SDS011;45342;42.662;27.718;2023-04-03T03:11:54;3.00;;;2.70;;
59516;SDS011;45342;42.662;27.718;2023-04-03T03:14:20;3.25;;;2.80;;
59516;SDS011;45342;42.662;27.718;2023-04-03T03:16:46;3.92;;;2.60;;
59516;SDS011;45342;42.662;27.718;2023-04-03T03:19:11;3.22;;;2.92;;
59516;SDS011;45342;42.662;27.718;2023-04-03T03:21:37;3.40;;;2.78;;
59516;SDS011;45342;42.662;27.718;2023-04-03T03:24:03;2.67;;;2.45;;
59516;SDS011;45342;42.662;27.718;2023-04-03T03:26:28;3.80;;;2.58;;
59516;SDS011;45342;42.662;27.718;2023-04-03T03:28:54;2.63;;;2.42;;
59516;SDS011;45342;42.662;27.718;2023-04-03T03:31:20;3.17;;;2.70;;
59516;SDS011;45342;42.662;27.718;2023-04-03T03:33:45;3.20;;;2.75;;
59516;SDS011;45342;42.662;27.718;2023-04-03T03:36:11;3.30;;;2.65;;
59516;SDS011;45342;42.662;27.718;2023-04-03T03:38:36;4.15;;;2.40;;
59516;SDS011;45342;42.662;27.718;2023-04-03T03:41:02;2.85;;;2.65;;
59516;SDS011;45342;42.662;27.718;2023-04-03T03:43:28;3.58;;;2.53;;
59516;SDS011;45342;42.662;27.718;2023-04-03T03:45:54;6.18;;;3.03;;
59516;SDS011;45342;42.662;27.718;2023-04-03T03:48:20;4.68;;;2.58;;
59516;SDS011;45342;42.662;27.718;2023-04-03T03:50:46;3.00;;;2.67;;
59516;SDS011;45342;42.662;27.718;2023-04-03T03:53:12;3.13;;;2.83;;
59516;SDS011;45342;42.662;27.718;2023-04-03T03:55:37;3.35;;;2.60;;
59516;SDS011;45342;42.662;27.718;2023-04-03T03:58:03;4.47;;;2.50;;
59516;SDS011;45342;42.662;27.718;2023-04-03T04:00:29;4.25;;;2.75;;
59516;SDS011;45342;42.662;27.718;2023-04-03T04:02:55;2.90;;;2.35;;
59516;SDS011;45342;42.662;27.718;2023-04-03T04:05:21;2.50;;;2.30;;
59516;SDS011;45342;42.662;27.718;2023-04-03T04:07:47;2.78;;;2.53;;
59516;SDS011;45342;42.662;27.718;2023-04-03T04:10:13;3.53;;;2.80;;
59516;SDS011;45342;42.662;27.718;2023-04-03T04:12:39;6.25;;;2.97;;
59516;SDS011;45342;42.662;27.718;2023-04-03T04:15:05;6.72;;;2.83;;
59516;SDS011;45342;42.662;27.718;2023-04-03T04:19:58;4.03;;;2.33;;
59516;SDS011;45342;42.662;27.718;2023-04-03T04:22:24;3.20;;;2.53;;
59516;SDS011;45342;42.662;27.718;2023-04-03T04:24:49;3.28;;;2.50;;
59516;SDS011;45342;42.662;27.718;2023-04-03T04:27:15;3.30;;;2.28;;
59516;SDS011;45342;42.662;27.718;2023-04-03T04:29:41;3.00;;;2.70;;
59516;SDS011;45342;42.662;27.718;2023-04-03T04:32:06;4.43;;;2.88;;
59516;SDS011;45342;42.662;27.718;2023-04-03T04:34:32;4.40;;;3.10;;
59516;SDS011;45342;42.662;27.718;2023-04-03T04:36:58;3.53;;;2.83;;
59516;SDS011;45342;42.662;27.718;2023-04-03T04:39:24;4.13;;;3.20;;
59516;SDS011;45342;42.662;27.718;2023-04-03T04:41:49;5.10;;;3.72;;
59516;SDS011;45342;42.662;27.718;2023-04-03T04:44:15;5.22;;;3.70;;
59516;SDS011;45342;42.662;27.718;2023-04-03T04:46:41;5.50;;;3.40;;
59516;SDS011;45342;42.662;27.718;2023-04-03T04:49:06;4.15;;;3.03;;
59516;SDS011;45342;42.662;27.718;2023-04-03T04:51:33;3.55;;;2.85;;
59516;SDS011;45342;42.662;27.718;2023-04-03T04:53:59;3.92;;;2.90;;
59516;SDS011;45342;42.662;27.718;2023-04-03T04:56:25;5.03;;;2.83;;
59516;SDS011;45342;42.662;27.718;2023-04-03T04:58:51;4.68;;;2.83;;
59516;SDS011;45342;42.662;27.718;2023-04-03T05:01:16;5.22;;;2.90;;
59516;SDS011;45342;42.662;27.718;2023-04-03T05:03:43;4.35;;;2.63;;
59516;SDS011;45342;42.662;27.718;2023-04-03T05:06:09;5.47;;;2.63;;
59516;SDS011;45342;42.662;27.718;2023-04-03T05:08:35;3.88;;;2.70;;
59516;SDS011;45342;42.662;27.718;2023-04-03T05:11:00;4.47;;;2.88;;
59516;SDS011;45342;42.662;27.718;2023-04-03T05:13:26;3.40;;;3.10;;
59516;SDS011;45342;42.662;27.718;2023-04-03T05:15:52;4.53;;;2.72;;
59516;SDS011;45342;42.662;27.718;2023-04-03T05:18:19;5.90;;;3.20;;
59516;SDS011;45342;42.662;27.718;2023-04-03T05:20:44;7.20;;;3.20;;
59516;SDS011;45342;42.662;27.718;2023-04-03T05:23:10;4.18;;;3.00;;
59516;SDS011;45342;42.662;27.718;2023-04-03T05:25:38;3.60;;;2.70;;
59516;SDS011;45342;42.662;27.718;2023-04-03T05:28:04;4.00;;;3.00;;
59516;SDS011;45342;42.662;27.718;2023-04-03T05:30:30;4.50;;;2.75;;
59516;SDS011;45342;42.662;27.718;2023-04-03T05:32:55;2.90;;;2.53;;
59516;SDS011;45342;42.662;27.718;2023-04-03T05:35:21;2.90;;;2.60;;
59516;SDS011;45342;42.662;27.718;2023-04-03T05:37:47;4.43;;;3.00;;
59516;SDS011;45342;42.662;27.718;2023-04-03T05:40:13;3.08;;;2.35;;
59516;SDS011;45342;42.662;27.718;2023-04-03T05:42:38;4.25;;;2.50;;
59516;SDS011;45342;42.662;27.718;2023-04-03T05:45:04;3.92;;;2.55;;
59516;SDS011;45342;42.662;27.718;2023-04-03T05:47:30;3.47;;;2.85;;
59516;SDS011;45342;42.662;27.718;2023-04-03T05:49:56;5.22;;;2.85;;
59516;SDS011;45342;42.662;27.718;2023-04-03T05:52:29;4.10;;;2.72;;
59516;SDS011;45342;42.662;27.718;2023-04-03T05:54:56;4.80;;;3.00;;
59516;SDS011;45342;42.662;27.718;2023-04-03T05:57:22;6.25;;;3.08;;
59516;SDS011;45342;42.662;27.718;2023-04-03T05:59:48;3.05;;;2.65;;
59516;SDS011;45342;42.662;27.718;2023-04-03T06:02:17;4.68;;;2.45;;
59516;SDS011;45342;42.662;27.718;2023-04-03T06:04:44;5.00;;;2.72;;
59516;SDS011;45342;42.662;27.718;2023-04-03T06:07:14;3.67;;;3.05;;
59516;SDS011;45342;42.662;27.718;2023-04-03T06:09:42;5.43;;;2.80;;
59516;SDS011;45342;42.662;27.718;2023-04-03T06:12:08;4.10;;;2.63;;
59516;SDS011;45342;42.662;27.718;2023-04-03T06:14:34;3.10;;;2.67;;
59516;SDS011;45342;42.662;27.718;2023-04-03T06:17:00;3.97;;;2.72;;
59516;SDS011;45342;42.662;27.718;2023-04-03T06:19:26;2.72;;;2.22;;
59516;SDS011;45342;42.662;27.718;2023-04-03T06:21:53;2.92;;;2.60;;
59516;SDS011;45342;42.662;27.718;2023-04-03T06:24:19;3.00;;;2.70;;
59516;SDS011;45342;42.662;27.718;2023-04-03T06:26:46;3.75;;;2.75;;
59516;SDS011;45342;42.662;27.718;2023-04-03T06:29:12;4.55;;;2.80;;
59516;SDS011;45342;42.662;27.718;2023-04-03T06:31:38;5.10;;;2.90;;
59516;SDS011;45342;42.662;27.718;2023-04-03T06:36:31;2.72;;;2.42;;
59516;SDS011;45342;42.662;27.718;2023-04-03T06:38:57;4.00;;;2.60;;
59516;SDS011;45342;42.662;27.718;2023-04-03T06:41:22;2.90;;;2.70;;
59516;SDS011;45342;42.662;27.718;2023-04-03T06:43:48;3.13;;;2.40;;
59516;SDS011;45342;42.662;27.718;2023-04-03T06:46:17;2.88;;;2.50;;
59516;SDS011;45342;42.662;27.718;2023-04-03T06:48:44;2.80;;;2.55;;
59516;SDS011;45342;42.662;27.718;2023-04-03T06:51:17;4.63;;;2.63;;
59516;SDS011;45342;42.662;27.718;2023-04-03T06:53:45;3.40;;;2.72;;
59516;SDS011;45342;42.662;27.718;2023-04-03T06:58:36;4.90;;;2.67;;
59516;SDS011;45342;42.662;27.718;2023-04-03T07:01:02;3.42;;;2.60;;
59516;SDS011;45342;42.662;27.718;2023-04-03T07:03:28;2.83;;;2.40;;
59516;SDS011;45342;42.662;27.718;2023-04-03T07:05:53;2.53;;;2.30;;
59516;SDS011;45342;42.662;27.718;2023-04-03T07:08:19;2.42;;;2.22;;
59516;SDS011;45342;42.662;27.718;2023-04-03T07:10:44;2.40;;;2.20;;
59516;SDS011;45342;42.662;27.718;2023-04-03T07:13:10;3.35;;;2.67;;
59516;SDS011;45342;42.662;27.718;2023-04-03T07:15:36;2.67;;;2.40;;
59516;SDS011;45342;42.662;27.718;2023-04-03T07:18:02;3.00;;;2.67;;
59516;SDS011;45342;42.662;27.718;2023-04-03T07:20:27;3.63;;;2.60;;
59516;SDS011;45342;42.662;27.718;2023-04-03T07:22:53;2.92;;;2.40;;
59516;SDS011;45342;42.662;27.718;2023-04-03T07:25:21;2.58;;;2.20;;
59516;SDS011;45342;42.662;27.718;2023-04-03T07:27:47;2.58;;;2.38;;
59516;SDS011;45342;42.662;27.718;2023-04-03T07:30:14;3.17;;;2.58;;
59516;SDS011;45342;42.662;27.718;2023-04-03T07:32:40;3.25;;;2.50;;
59516;SDS011;45342;42.662;27.718;2023-04-03T07:35:06;2.85;;;2.30;;
59516;SDS011;45342;42.662;27.718;2023-04-03T07:37:31;2.63;;;2.35;;
59516;SDS011;45342;42.662;27.718;2023-04-03T07:39:57;3.38;;;2.25;;
59516;SDS011;45342;42.662;27.718;2023-04-03T07:42:24;2.60;;;2.40;;
59516;SDS011;45342;42.662;27.718;2023-04-03T07:44:52;2.45;;;2.20;;
59516;SDS011;45342;42.662;27.718;2023-04-03T07:47:19;2.55;;;2.28;;
59516;SDS011;45342;42.662;27.718;2023-04-03T07:49:46;3.17;;;2.50;;
59516;SDS011;45342;42.662;27.718;2023-04-03T07:52:12;2.63;;;2.38;;
59516;SDS011;45342;42.662;27.718;2023-04-03T07:54:38;2.80;;;2.50;;
59516;SDS011;45342;42.662;27.718;2023-04-03T07:57:04;2.83;;;2.50;;
59516;SDS011;45342;42.662;27.718;2023-04-03T07:59:30;3.60;;;2.72;;
59516;SDS011;45342;42.662;27.718;2023-04-03T08:01:55;2.70;;;2.25;;
59516;SDS011;45342;42.662;27.718;2023-04-03T08:04:22;3.03;;;2.25;;
59516;SDS011;45342;42.662;27.718;2023-04-03T08:06:47;2.88;;;2.40;;
59516;SDS011;45342;42.662;27.718;2023-04-03T08:09:14;3.25;;;2.70;;
59516;SDS011;45342;42.662;27.718;2023-04-03T08:11:40;2.83;;;2.40;;
59516;SDS011;45342;42.662;27.718;2023-04-03T08:14:06;3.15;;;2.60;;
59516;SDS011;45342;42.662;27.718;2023-04-03T08:16:32;2.63;;;2.22;;
59516;SDS011;45342;42.662;27.718;2023-04-03T08:18:58;3.47;;;2.55;;
59516;SDS011;45342;42.662;27.718;2023-04-03T08:23:50;4.35;;;2.60;;
59516;SDS011;45342;42.662;27.718;2023-04-03T08:26:17;2.85;;;2.53;;
59516;SDS011;45342;42.662;27.718;2023-04-03T08:28:45;2.80;;;2.47;;
59516;SDS011;45342;42.662;27.718;2023-04-03T08:31:12;2.53;;;2.33;;
59516;SDS011;45342;42.662;27.718;2023-04-03T08:33:40;3.03;;;2.50;;
59516;SDS011;45342;42.662;27.718;2023-04-03T08:36:07;3.40;;;2.88;;
59516;SDS011;45342;42.662;27.718;2023-04-03T08:38:40;2.95;;;2.65;;
59516;SDS011;45342;42.662;27.718;2023-04-03T08:43:41;2.67;;;2.47;;
59516;SDS011;45342;42.662;27.718;2023-04-03T08:46:22;2.60;;;2.40;;
59516;SDS011;45342;42.662;27.718;2023-04-03T08:48:51;3.05;;;2.40;;
59516;SDS011;45342;42.662;27.718;2023-04-03T08:51:17;3.60;;;2.58;;
59516;SDS011;45342;42.662;27.718;2023-04-03T08:53:49;3.20;;;2.80;;
59516;SDS011;45342;42.662;27.718;2023-04-03T08:56:21;5.13;;;2.80;;
59516;SDS011;45342;42.662;27.718;2023-04-03T08:58:50;3.05;;;2.70;;
59516;SDS011;45342;42.662;27.718;2023-04-03T09:01:23;2.53;;;2.33;;
59516;SDS011;45342;42.662;27.718;2023-04-03T09:03:51;3.50;;;2.88;;
59516;SDS011;45342;42.662;27.718;2023-04-03T09:06:21;3.00;;;2.70;;
59516;SDS011;45342;42.662;27.718;2023-04-03T09:11:40;3.13;;;2.47;;
59516;SDS011;45342;42.662;27.718;2023-04-03T09:17:07;3.50;;;2.85;;
59516;SDS011;45342;42.662;27.718;2023-04-03T09:19:43;5.78;;;2.67;;
59516;SDS011;45342;42.662;27.718;2023-04-03T09:22:20;4.30;;;2.90;;
59516;SDS011;45342;42.662;27.718;2023-04-03T09:24:49;3.22;;;2.72;;
59516;SDS011;45342;42.662;27.718;2023-04-03T09:27:23;4.13;;;2.65;;
59516;SDS011;45342;42.662;27.718;2023-04-03T09:29:48;3.10;;;2.80;;
59516;SDS011;45342;42.662;27.718;2023-04-03T09:34:46;3.78;;;3.00;;
59516;SDS011;45342;42.662;27.718;2023-04-03T09:37:12;3.58;;;2.88;;
59516;SDS011;45342;42.662;27.718;2023-04-03T09:40:03;4.20;;;2.70;;
59516;SDS011;45342;42.662;27.718;2023-04-03T09:42:30;3.38;;;2.80;;
59516;SDS011;45342;42.662;27.718;2023-04-03T09:44:59;3.30;;;2.80;;
59516;SDS011;45342;42.662;27.718;2023-04-03T09:47:33;4.57;;;3.10;;
59516;SDS011;45342;42.662;27.718;2023-04-03T09:52:44;3.20;;;2.90;;
59516;SDS011;45342;42.662;27.718;2023-04-03T09:55:14;5.75;;;3.42;;
59516;SDS011;45342;42.662;27.718;2023-04-03T09:57:40;5.13;;;3.40;;
59516;SDS011;45342;42.662;27.718;2023-04-03T10:00:10;3.67;;;3.28;;
59516;SDS011;45342;42.662;27.718;2023-04-03T10:03:01;3.55;;;2.90;;
59516;SDS011;45342;42.662;27.718;2023-04-03T10:05:34;4.10;;;2.92;;
59516;SDS011;45342;42.662;27.718;2023-04-03T10:10:40;3.88;;;3.10;;
59516;SDS011;45342;42.662;27.718;2023-04-03T10:13:13;3.47;;;3.00;;
59516;SDS011;45342;42.662;27.718;2023-04-03T10:15:41;3.92;;;3.17;;
59516;SDS011;45342;42.662;27.718;2023-04-03T10:20:48;3.47;;;3.17;;
59516;SDS011;45342;42.662;27.718;2023-04-03T10:23:17;3.30;;;3.00;;
59516;SDS011;45342;42.662;27.718;2023-04-03T10:26:02;3.22;;;2.90;;
59516;SDS011;45342;42.662;27.718;2023-04-03T10:31:34;3.33;;;3.03;;
59516;SDS011;45342;42.662;27.718;2023-04-03T10:34:21;3.80;;;3.20;;
59516;SDS011;45342;42.662;27.718;2023-04-03T10:37:06;3.55;;;3.10;;
59516;SDS011;45342;42.662;27.718;2023-04-03T10:39:46;3.92;;;3.30;;
59516;SDS011;45342;42.662;27.718;2023-04-03T10:58:04;3.70;;;3.10;;
59516;SDS011;45342;42.662;27.718;2023-04-03T11:03:13;4.20;;;3.30;;
59516;SDS011;45342;42.662;27.718;2023-04-03T11:08:24;3.13;;;2.83;;
59516;SDS011;45342;42.662;27.718;2023-04-03T11:10:53;3.45;;;2.90;;
59516;SDS011;45342;42.662;27.718;2023-04-03T11:13:31;4.35;;;3.13;;
59516;SDS011;45342;42.662;27.718;2023-04-03T11:15:59;4.75;;;3.10;;
59516;SDS011;45342;42.662;27.718;2023-04-03T11:18:27;3.40;;;3.10;;
59516;SDS011;45342;42.662;27.718;2023-04-03T11:21:07;6.53;;;3.42;;
59516;SDS011;45342;42.662;27.718;2023-04-03T11:23:39;3.78;;;2.80;;
59516;SDS011;45342;42.662;27.718;2023-04-03T11:26:27;3.50;;;3.00;;
59516;SDS011;45342;42.662;27.718;2023-04-03T11:28:56;4.38;;;3.60;;
59516;SDS011;45342;42.662;27.718;2023-04-03T11:31:33;4.60;;;3.20;;
59516;SDS011;45342;42.662;27.718;2023-04-03T11:35:01;3.55;;;3.25;;
59516;SDS011;45342;42.662;27.718;2023-04-03T11:37:02;4.13;;;3.42;;
59516;SDS011;45342;42.662;27.718;2023-04-03T11:39:35;4.05;;;3.30;;
59516;SDS011;45342;42.662;27.718;2023-04-03T11:42:40;4.50;;;3.60;;
59516;SDS011;45342;42.662;27.718;2023-04-03T11:47:51;4.35;;;3.58;;
59516;SDS011;45342;42.662;27.718;2023-04-03T11:52:56;7.50;;;3.80;;
59516;SDS011;45342;42.662;27.718;2023-04-03T12:05:56;4.30;;;3.53;;
59516;SDS011;45342;42.662;27.718;2023-04-03T12:13:39;3.90;;;3.28;;
59516;SDS011;45342;42.662;27.718;2023-04-03T12:16:05;4.43;;;3.80;;
59516;SDS011;45342;42.662;27.718;2023-04-03T12:34:43;4.45;;;3.88;;
59516;SDS011;45342;42.662;27.718;2023-04-03T12:37:26;4.25;;;3.72;;
59516;SDS011;45342;42.662;27.718;2023-04-03T12:40:07;6.15;;;3.92;;
59516;SDS011;45342;42.662;27.718;2023-04-03T12:42:46;6.15;;;4.40;;
59516;SDS011;45342;42.662;27.718;2023-04-03T12:45:25;4.68;;;4.10;;
59516;SDS011;45342;42.662;27.718;2023-04-03T12:47:55;4.72;;;3.90;;
59516;SDS011;45342;42.662;27.718;2023-04-03T12:50:27;5.68;;;3.70;;
59516;SDS011;45342;42.662;27.718;2023-04-03T12:53:05;4.90;;;3.90;;
59516;SDS011;45342;42.662;27.718;2023-04-03T12:55:35;4.80;;;3.60;;
59516;SDS011;45342;42.662;27.718;2023-04-03T12:58:20;4.18;;;3.78;;
59516;SDS011;45342;42.662;27.718;2023-04-03T13:01:01;5.18;;;3.90;;
59516;SDS011;45342;42.662;27.718;2023-04-03T13:03:36;5.28;;;4.47;;
59516;SDS011;45342;42.662;27.718;2023-04-03T13:06:03;5.88;;;4.10;;
59516;SDS011;45342;42.662;27.718;2023-04-03T13:08:29;4.32;;;3.90;;
59516;SDS011;45342;42.662;27.718;2023-04-03T13:11:02;5.43;;;4.28;;
59516;SDS011;45342;42.662;27.718;2023-04-03T13:13:31;5.72;;;4.15;;
59516;SDS011;45342;42.662;27.718;2023-04-03T13:15:57;5.80;;;4.25;;
59516;SDS011;45342;42.662;27.718;2023-04-03T13:20:49;6.60;;;5.05;;
59516;SDS011;45342;42.662;27.718;2023-04-03T13:23:15;5.47;;;4.47;;
59516;SDS011;45342;42.662;27.718;2023-04-03T13:25:43;6.47;;;4.90;;
59516;SDS011;45342;42.662;27.718;2023-04-03T13:30:37;6.68;;;4.38;;
59516;SDS011;45342;42.662;27.718;2023-04-03T13:33:05;5.45;;;4.60;;
59516;SDS011;45342;42.662;27.718;2023-04-03T13:35:42;5.22;;;4.18;;
59516;SDS011;45342;42.662;27.718;2023-04-03T13:40:57;6.40;;;4.70;;
59516;SDS011;45342;42.662;27.718;2023-04-03T13:43:28;5.75;;;4.47;;
59516;SDS011;45342;42.662;27.718;2023-04-03T13:45:59;7.28;;;4.57;;
59516;SDS011;45342;42.662;27.718;2023-04-03T13:48:50;6.55;;;4.85;;
59516;SDS011;45342;42.662;27.718;2023-04-03T13:51:22;6.85;;;5.07;;
59516;SDS011;45342;42.662;27.718;2023-04-03T13:54:00;6.68;;;5.30;;
59516;SDS011;45342;42.662;27.718;2023-04-03T13:56:30;7.30;;;5.13;;
59516;SDS011;45342;42.662;27.718;2023-04-03T13:59:02;6.85;;;5.25;;
59516;SDS011;45342;42.662;27.718;2023-04-03T14:01:36;7.65;;;5.32;;
59516;SDS011;45342;42.662;27.718;2023-04-03T14:04:27;7.72;;;5.90;;
59516;SDS011;45342;42.662;27.718;2023-04-03T14:06:53;6.95;;;5.18;;
59516;SDS011;45342;42.662;27.718;2023-04-03T14:09:20;7.15;;;5.15;;
59516;SDS011;45342;42.662;27.718;2023-04-03T14:11:47;7.65;;;5.40;;
59516;SDS011;45342;42.662;27.718;2023-04-03T14:14:15;7.88;;;5.40;;
59516;SDS011;45342;42.662;27.718;2023-04-03T14:16:44;5.78;;;4.63;;
59516;SDS011;45342;42.662;27.718;2023-04-03T14:19:14;7.03;;;5.05;;
59516;SDS011;45342;42.662;27.718;2023-04-03T14:21:44;7.13;;;5.50;;
59516;SDS011;45342;42.662;27.718;2023-04-03T14:24:10;7.20;;;5.60;;
59516;SDS011;45342;42.662;27.718;2023-04-03T14:26:36;7.28;;;5.30;;
59516;SDS011;45342;42.662;27.718;2023-04-03T14:29:02;8.15;;;5.43;;
59516;SDS011;45342;42.662;27.718;2023-04-03T14:31:27;7.95;;;6.10;;
59516;SDS011;45342;42.662;27.718;2023-04-03T14:33:53;9.98;;;5.95;;
59516;SDS011;45342;42.662;27.718;2023-04-03T14:36:20;8.98;;;6.50;;
59516;SDS011;45342;42.662;27.718;2023-04-03T14:38:47;9.55;;;6.22;;
59516;SDS011;45342;42.662;27.718;2023-04-03T14:41:15;9.43;;;6.53;;
59516;SDS011;45342;42.662;27.718;2023-04-03T14:43:42;8.10;;;6.07;;
59516;SDS011;45342;42.662;27.718;2023-04-03T14:46:12;9.23;;;6.22;;
59516;SDS011;45342;42.662;27.718;2023-04-03T14:48:40;9.65;;;6.88;;
59516;SDS011;45342;42.662;27.718;2023-04-03T14:51:06;8.15;;;6.13;;
59516;SDS011;45342;42.662;27.718;2023-04-03T14:53:32;9.85;;;7.22;;
59516;SDS011;45342;42.662;27.718;2023-04-03T14:55:57;9.48;;;6.85;;
59516;SDS011;45342;42.662;27.718;2023-04-03T14:58:23;9.63;;;6.95;;
59516;SDS011;45342;42.662;27.718;2023-04-03T15:00:49;8.07;;;6.60;;
59516;SDS011;45342;42.662;27.718;2023-04-03T15:03:15;9.15;;;6.65;;
59516;SDS011;45342;42.662;27.718;2023-04-03T15:05:43;9.80;;;6.40;;
59516;SDS011;45342;42.662;27.718;2023-04-03T15:08:16;8.88;;;7.10;;
59516;SDS011;45342;42.662;27.718;2023-04-03T15:13:12;8.77;;;6.60;;
59516;SDS011;45342;42.662;27.718;2023-04-03T15:15:38;10.52;;;7.70;;
59516;SDS011;45342;42.662;27.718;2023-04-03T15:18:04;10.27;;;7.43;;
59516;SDS011;45342;42.662;27.718;2023-04-03T15:22:58;9.88;;;7.53;;
59516;SDS011;45342;42.662;27.718;2023-04-03T15:25:26;8.68;;;7.03;;
59516;SDS011;45342;42.662;27.718;2023-04-03T15:27:52;10.20;;;7.72;;
59516;SDS011;45342;42.662;27.718;2023-04-03T15:30:19;8.70;;;6.72;;
59516;SDS011;45342;42.662;27.718;2023-04-03T15:32:45;8.20;;;6.75;;
59516;SDS011;45342;42.662;27.718;2023-04-03T15:35:11;9.00;;;7.22;;
59516;SDS011;45342;42.662;27.718;2023-04-03T15:37:36;9.90;;;6.78;;
59516;SDS011;45342;42.662;27.718;2023-04-03T15:40:03;13.48;;;7.13;;
59516;SDS011;45342;42.662;27.718;2023-04-03T15:42:29;8.52;;;6.88;;
59516;SDS011;45342;42.662;27.718;2023-04-03T15:44:55;9.50;;;7.07;;
59516;SDS011;45342;42.662;27.718;2023-04-03T15:47:21;10.40;;;7.50;;
59516;SDS011;45342;42.662;27.718;2023-04-03T15:49:46;9.18;;;7.18;;
59516;SDS011;45342;42.662;27.718;2023-04-03T15:52:12;9.30;;;7.10;;
59516;SDS011;45342;42.662;27.718;2023-04-03T15:54:37;9.90;;;7.50;;
59516;SDS011;45342;42.662;27.718;2023-04-03T15:57:03;9.35;;;6.95;;
59516;SDS011;45342;42.662;27.718;2023-04-03T15:59:29;8.82;;;6.55;;
59516;SDS011;45342;42.662;27.718;2023-04-03T16:01:57;9.90;;;6.57;;
59516;SDS011;45342;42.662;27.718;2023-04-03T16:04:24;8.80;;;6.60;;
59516;SDS011;45342;42.662;27.718;2023-04-03T16:06:49;8.75;;;6.88;;
59516;SDS011;45342;42.662;27.718;2023-04-03T16:09:15;9.13;;;6.97;;
59516;SDS011;45342;42.662;27.718;2023-04-03T16:11:41;8.65;;;6.47;;
59516;SDS011;45342;42.662;27.718;2023-04-03T16:14:07;11.88;;;8.20;;
59516;SDS011;45342;42.662;27.718;2023-04-03T16:16:33;9.18;;;7.13;;
59516;SDS011;45342;42.662;27.718;2023-04-03T16:18:59;10.52;;;7.60;;
59516;SDS011;45342;42.662;27.718;2023-04-03T16:21:24;10.35;;;7.40;;
59516;SDS011;45342;42.662;27.718;2023-04-03T16:23:50;10.18;;;7.05;;
59516;SDS011;45342;42.662;27.718;2023-04-03T16:26:19;10.27;;;7.18;;
59516;SDS011;45342;42.662;27.718;2023-04-03T16:28:56;8.45;;;6.72;;
59516;SDS011;45342;42.662;27.718;2023-04-03T16:31:31;8.35;;;6.82;;
59516;SDS011;45342;42.662;27.718;2023-04-03T16:33:58;8.63;;;6.72;;